createdAt,value
2024-04-23T00:00:06.654Z,51.19
2024-04-23T00:01:06.718Z,50.86
2024-04-23T00:02:06.705Z,51.82
2024-04-23T00:03:06.699Z,53.89
2024-04-23T00:04:06.688Z,52.45
2024-04-23T00:05:06.681Z,54.63
2024-04-23T00:06:06.661Z,52.17
2024-04-23T00:07:06.657Z,53.04
2024-04-23T00:08:06.741Z,53.16
2024-04-23T00:09:06.665Z,53.09
2024-04-23T00:10:06.665Z,52.37
2024-04-23T00:11:06.935Z,53.16
2024-04-23T00:12:06.670Z,52.25
2024-04-23T00:13:06.668Z,53.62
2024-04-23T00:14:06.671Z,53.88
2024-04-23T00:15:06.667Z,53.72
2024-04-23T00:16:06.672Z,52.25
2024-04-23T00:17:06.692Z,50.70
2024-04-23T00:18:06.874Z,52.00
2024-04-23T00:19:06.674Z,54.58
2024-04-23T00:20:06.780Z,53.10
2024-04-23T00:21:06.679Z,52.09
2024-04-23T00:22:06.679Z,52.72
2024-04-23T00:23:06.692Z,52.43
2024-04-23T00:24:06.679Z,53.41
2024-04-23T00:25:06.681Z,53.58
2024-04-23T00:26:06.692Z,54.63
2024-04-23T00:27:06.701Z,51.95
2024-04-23T00:28:06.720Z,54.32
2024-04-23T00:29:06.728Z,54.36
2024-04-23T00:30:06.747Z,54.16
2024-04-23T00:31:06.761Z,53.32
2024-04-23T00:32:06.948Z,53.36
2024-04-23T00:33:06.811Z,53.08
2024-04-23T00:34:06.798Z,52.62
2024-04-23T00:35:06.858Z,52.59
2024-04-23T00:36:06.827Z,52.98
2024-04-23T00:37:06.846Z,53.58
2024-04-23T00:38:06.844Z,53.11
2024-04-23T00:39:06.915Z,52.10
2024-04-23T00:40:06.885Z,51.78
2024-04-23T00:41:06.893Z,51.10
2024-04-23T00:42:06.901Z,52.85
2024-04-23T00:43:06.928Z,52.45
2024-04-23T00:44:06.925Z,52.60
2024-04-23T00:45:06.941Z,53.74
2024-04-23T00:46:06.965Z,53.89
2024-04-23T00:47:07.006Z,53.18
2024-04-23T00:48:07.019Z,50.74
2024-04-23T00:49:07.003Z,51.61
2024-04-23T00:50:07.067Z,52.88
2024-04-23T00:51:07.052Z,54.32
2024-04-23T00:52:07.059Z,52.25
2024-04-23T00:53:07.073Z,51.31
2024-04-23T00:54:07.092Z,52.56
2024-04-23T00:55:07.117Z,54.35
2024-04-23T00:56:07.193Z,55.28
2024-04-23T00:57:07.133Z,53.66
2024-04-23T00:58:07.146Z,54.15
2024-04-23T00:59:07.339Z,56.35
2024-04-23T01:00:07.164Z,52.87
2024-04-23T01:01:07.218Z,54.65
2024-04-23T01:02:07.418Z,53.35
2024-04-23T01:03:07.363Z,54.72
2024-04-23T01:04:07.229Z,54.29
2024-04-23T01:05:07.323Z,54.22
2024-04-23T01:06:07.269Z,57.04
2024-04-23T01:07:07.287Z,56.66
2024-04-23T01:08:07.348Z,54.96
2024-04-23T01:09:07.304Z,54.81
2024-04-23T01:10:07.328Z,56.09
2024-04-23T01:11:07.433Z,54.66
2024-04-23T01:12:07.347Z,58.60
2024-04-23T01:13:07.371Z,56.15
2024-04-23T01:14:07.447Z,60.83
2024-04-23T01:15:07.386Z,57.10
2024-04-23T01:16:07.393Z,60.22
2024-04-23T01:17:07.579Z,58.29
2024-04-23T01:18:07.612Z,58.77
2024-04-23T01:19:07.424Z,60.97
2024-04-23T01:20:07.524Z,58.77
2024-04-23T01:21:07.447Z,57.72
2024-04-23T01:22:07.458Z,57.10
2024-04-23T01:23:07.467Z,60.06
2024-04-23T01:24:07.482Z,59.45
2024-04-23T01:25:07.489Z,60.79
2024-04-23T01:26:07.564Z,58.96
2024-04-23T01:27:07.503Z,57.00
2024-04-23T01:28:07.514Z,57.03
2024-04-23T01:29:07.519Z,60.91
2024-04-23T01:30:07.538Z,59.10
2024-04-23T01:31:07.552Z,58.74
2024-04-23T01:32:07.562Z,59.62
2024-04-23T01:33:07.637Z,57.65
2024-04-23T01:34:07.583Z,58.10
2024-04-23T01:35:07.617Z,59.51
2024-04-23T01:36:07.616Z,61.55
2024-04-23T01:37:07.645Z,56.76
2024-04-23T01:38:07.641Z,58.08
2024-04-23T01:39:07.679Z,58.32
2024-04-23T01:40:07.684Z,56.51
2024-04-23T01:41:07.684Z,58.47
2024-04-23T01:42:07.704Z,58.08
2024-04-23T01:43:07.717Z,60.19
2024-04-23T01:44:07.729Z,59.95
2024-04-23T01:45:07.787Z,60.96
2024-04-23T01:46:07.754Z,61.72
2024-04-23T01:47:08.010Z,63.43
2024-04-23T01:48:07.853Z,60.36
2024-04-23T01:49:07.790Z,62.25
2024-04-23T01:50:07.880Z,60.34
2024-04-23T01:51:07.820Z,61.61
2024-04-23T01:52:07.840Z,61.41
2024-04-23T01:53:08.838Z,62.40
2024-04-23T01:54:07.862Z,63.14
2024-04-23T01:55:07.867Z,61.75
2024-04-23T01:56:07.877Z,62.25
2024-04-23T01:57:07.895Z,62.98
2024-04-23T01:58:07.907Z,64.22
2024-04-23T01:59:07.925Z,63.40
2024-04-23T02:00:07.944Z,63.68
2024-04-23T02:01:08.001Z,65.18
2024-04-23T02:02:08.018Z,62.68
2024-04-23T02:03:08.072Z,64.56
2024-04-23T02:04:07.994Z,64.81
2024-04-23T02:05:08.026Z,63.38
2024-04-23T02:06:08.036Z,66.22
2024-04-23T02:07:08.052Z,65.55
2024-04-23T02:08:08.121Z,64.75
2024-04-23T02:09:08.082Z,67.15
2024-04-23T02:10:08.092Z,66.58
2024-04-23T02:11:08.185Z,67.13
2024-04-23T02:12:08.123Z,69.62
2024-04-23T02:13:08.138Z,69.07
2024-04-23T02:14:08.155Z,68.59
2024-04-23T02:15:08.206Z,67.31
2024-04-23T02:16:08.198Z,69.65
2024-04-23T02:17:08.333Z,65.88
2024-04-23T02:18:08.381Z,68.14
2024-04-23T02:19:08.245Z,67.42
2024-04-23T02:20:08.256Z,70.32
2024-04-23T02:21:08.332Z,69.19
2024-04-23T02:22:08.270Z,71.94
2024-04-23T02:23:08.397Z,67.23
2024-04-23T02:24:08.316Z,69.29
2024-04-23T02:25:08.372Z,69.42
2024-04-23T02:26:08.516Z,69.21
2024-04-23T02:27:08.407Z,70.96
2024-04-23T02:28:08.430Z,70.50
2024-04-23T02:29:08.450Z,70.98
2024-04-23T02:30:08.439Z,67.11
2024-04-23T02:31:08.431Z,71.69
2024-04-23T02:32:08.515Z,69.67
2024-04-23T02:33:08.565Z,69.48
2024-04-23T02:34:08.484Z,70.21
2024-04-23T02:35:08.513Z,70.93
2024-04-23T02:36:08.489Z,73.36
2024-04-23T02:37:08.508Z,72.85
2024-04-23T02:38:08.523Z,72.35
2024-04-23T02:39:08.542Z,72.96
2024-04-23T02:40:08.601Z,72.40
2024-04-23T02:41:08.652Z,74.20
2024-04-23T02:42:08.590Z,71.89
2024-04-23T02:43:08.602Z,74.01
2024-04-23T02:44:08.630Z,71.30
2024-04-23T02:45:08.662Z,73.97
2024-04-23T02:46:08.659Z,74.45
2024-04-23T02:47:08.758Z,75.27
2024-04-23T02:48:08.887Z,73.98
2024-04-23T02:49:08.709Z,71.94
2024-04-23T02:50:08.758Z,73.22
2024-04-23T02:51:08.748Z,73.38
2024-04-23T02:52:08.757Z,71.39
2024-04-23T02:53:08.795Z,72.45
2024-04-23T02:54:08.787Z,75.79
2024-04-23T02:55:08.793Z,72.82
2024-04-23T02:56:08.839Z,71.97
2024-04-23T02:57:08.819Z,71.18
2024-04-23T02:58:08.839Z,71.11
2024-04-23T02:59:08.852Z,71.91
2024-04-23T03:00:08.905Z,71.89
2024-04-23T03:01:08.943Z,71.17
2024-04-23T03:02:09.012Z,72.08
2024-04-23T03:03:08.952Z,72.01
2024-04-23T03:04:08.927Z,70.73
2024-04-23T03:05:08.983Z,71.12
2024-04-23T03:06:08.965Z,70.69
2024-04-23T03:07:08.980Z,69.12
2024-04-23T03:08:09.045Z,70.04
2024-04-23T03:09:09.015Z,69.19
2024-04-23T03:10:09.036Z,67.50
2024-04-23T03:11:09.130Z,69.68
2024-04-23T03:12:09.081Z,68.54
2024-04-23T03:13:09.095Z,68.48
2024-04-23T03:14:09.179Z,67.61
2024-04-23T03:15:09.132Z,66.46
2024-04-23T03:16:10.310Z,69.10
2024-04-23T03:17:09.182Z,65.58
2024-04-23T03:18:09.281Z,67.54
2024-04-23T03:19:09.190Z,69.60
2024-04-23T03:20:09.248Z,67.48
2024-04-23T03:21:09.232Z,67.29
2024-04-23T03:22:09.243Z,69.63
2024-04-23T03:23:09.270Z,66.20
2024-04-23T03:24:09.275Z,69.09
2024-04-23T03:25:09.301Z,65.67
2024-04-23T03:26:09.352Z,65.83
2024-04-23T03:27:09.371Z,68.17
2024-04-23T03:28:09.367Z,67.00
2024-04-23T03:29:09.385Z,66.57
2024-04-23T03:30:09.408Z,67.14
2024-04-23T03:31:09.408Z,67.81
2024-04-23T03:32:09.486Z,65.46
2024-04-23T03:33:09.521Z,66.11
2024-04-23T03:34:09.462Z,66.90
2024-04-23T03:35:09.605Z,68.79
2024-04-23T03:36:09.500Z,65.06
2024-04-23T03:37:09.506Z,66.01
2024-04-23T03:38:09.532Z,66.67
2024-04-23T03:39:09.539Z,66.89
2024-04-23T03:40:09.577Z,65.06
2024-04-23T03:41:09.618Z,66.33
2024-04-23T03:42:09.595Z,68.12
2024-04-23T03:43:09.613Z,65.38
2024-04-23T03:44:09.757Z,67.69
2024-04-23T03:45:09.649Z,66.36
2024-04-23T03:46:09.666Z,66.86
2024-04-23T03:47:09.795Z,67.45
2024-04-23T03:48:09.765Z,65.92
2024-04-23T03:49:09.712Z,65.30
2024-04-23T03:50:09.827Z,67.65
2024-04-23T03:51:09.754Z,67.99
2024-04-23T03:52:09.804Z,64.36
2024-04-23T03:53:09.802Z,63.96
2024-04-23T03:54:09.802Z,63.61
2024-04-23T03:55:09.832Z,63.93
2024-04-23T03:56:09.849Z,64.39
2024-04-23T03:57:09.886Z,61.72
2024-04-23T03:58:09.878Z,64.24
2024-04-23T03:59:09.907Z,62.13
2024-04-23T04:00:09.980Z,61.09
2024-04-23T04:01:10.000Z,60.78
2024-04-23T04:02:09.993Z,59.68
2024-04-23T04:03:10.058Z,62.03
2024-04-23T04:04:10.029Z,62.28
2024-04-23T04:05:10.073Z,64.20
2024-04-23T04:06:10.086Z,59.17
2024-04-23T04:07:10.070Z,64.81
2024-04-23T04:08:10.095Z,61.71
2024-04-23T04:09:10.105Z,66.73
2024-04-23T04:10:10.117Z,65.98
2024-04-23T04:11:10.198Z,67.10
2024-04-23T04:12:10.154Z,65.88
2024-04-23T04:13:20.874Z,66.81
2024-04-23T04:14:11.214Z,66.91
2024-04-23T04:15:10.172Z,65.44
2024-04-23T04:16:10.179Z,65.81
2024-04-23T04:17:10.251Z,66.84
2024-04-23T04:18:10.260Z,66.51
2024-04-23T04:19:10.192Z,66.43
2024-04-23T04:20:10.303Z,64.95
2024-04-23T04:21:10.191Z,66.82
2024-04-23T04:22:10.196Z,64.91
2024-04-23T04:23:10.273Z,65.72
2024-04-23T04:24:10.202Z,66.35
2024-04-23T04:25:10.210Z,66.19
2024-04-23T04:26:10.248Z,66.50
2024-04-23T04:27:10.211Z,66.00
2024-04-23T04:28:10.217Z,66.42
2024-04-23T04:29:10.253Z,67.39
2024-04-23T04:30:10.209Z,65.15
2024-04-23T04:31:10.220Z,66.13
2024-04-23T04:32:10.256Z,65.52
2024-04-23T04:33:10.278Z,64.74
2024-04-23T04:34:10.224Z,65.10
2024-04-23T04:35:10.265Z,67.15
2024-04-23T04:36:10.256Z,64.38
2024-04-23T04:37:10.230Z,65.58
2024-04-23T04:38:10.264Z,61.64
2024-04-23T04:39:10.230Z,63.20
2024-04-23T04:40:10.232Z,61.84
2024-04-23T04:41:10.258Z,64.34
2024-04-23T04:42:10.236Z,61.76
2024-04-23T04:43:10.242Z,60.71
2024-04-23T04:44:10.298Z,62.70
2024-04-23T04:45:10.245Z,61.96
2024-04-23T04:46:10.239Z,63.88
2024-04-23T04:47:11.909Z,61.41
2024-04-23T04:48:10.381Z,62.86
2024-04-23T04:49:10.252Z,63.52
2024-04-23T04:50:10.326Z,62.13
2024-04-23T04:51:10.248Z,63.50
2024-04-23T04:52:10.251Z,64.73
2024-04-23T04:53:10.347Z,65.60
2024-04-23T04:54:10.252Z,67.54
2024-04-23T04:55:10.243Z,67.20
2024-04-23T04:56:10.270Z,67.06
2024-04-23T04:57:10.291Z,66.12
2024-04-23T04:58:10.332Z,66.48
2024-04-23T04:59:10.333Z,67.50
2024-04-23T05:00:10.404Z,66.89
2024-04-23T05:01:10.434Z,65.73
2024-04-23T05:02:10.400Z,66.39
2024-04-23T05:03:10.396Z,66.00
2024-04-23T05:04:10.424Z,65.01
2024-04-23T05:05:10.498Z,66.58
2024-04-23T05:06:10.439Z,66.79
2024-04-23T05:07:10.443Z,68.86
2024-04-23T05:08:10.454Z,66.35
2024-04-23T05:09:10.477Z,67.24
2024-04-23T05:10:10.477Z,69.17
2024-04-23T05:11:10.514Z,69.10
2024-04-23T05:12:10.522Z,72.42
2024-04-23T05:13:10.517Z,70.94
2024-04-23T05:14:10.536Z,70.80
2024-04-23T05:15:10.542Z,73.74
2024-04-23T05:16:10.564Z,73.60
2024-04-23T05:17:10.702Z,75.04
2024-04-23T05:18:10.668Z,73.39
2024-04-23T05:19:10.604Z,76.15
2024-04-23T05:20:10.640Z,77.15
2024-04-23T05:21:10.643Z,76.96
2024-04-23T05:22:10.643Z,78.64
2024-04-23T05:23:10.662Z,82.19
2024-04-23T05:24:10.673Z,77.71
2024-04-23T05:25:10.691Z,81.01
2024-04-23T05:26:10.689Z,82.60
2024-04-23T05:27:10.932Z,81.88
2024-04-23T05:28:10.766Z,83.41
2024-04-23T05:29:10.755Z,87.50
2024-04-23T05:30:10.732Z,85.38
2024-04-23T05:31:10.763Z,84.49
2024-04-23T05:32:10.970Z,87.28
2024-04-23T05:33:10.861Z,89.12
2024-04-23T05:34:10.835Z,92.10
2024-04-23T05:35:10.911Z,93.42
2024-04-23T05:36:10.950Z,96.13
2024-04-23T05:37:10.939Z,104.45
2024-04-23T05:38:10.929Z,111.93
2024-04-23T05:39:10.923Z,118.32
2024-04-23T05:40:10.933Z,126.79
2024-04-23T05:41:10.991Z,132.99
2024-04-23T05:42:10.941Z,140.89
2024-04-23T05:43:10.969Z,148.77
2024-04-23T05:44:11.052Z,153.97
2024-04-23T05:45:11.104Z,162.72
2024-04-23T05:46:11.446Z,167.66
2024-04-23T05:47:12.116Z,174.48
2024-04-23T05:48:11.429Z,177.74
2024-04-23T05:49:11.369Z,183.14
2024-04-23T05:50:11.455Z,186.57
2024-04-23T05:51:11.460Z,194.02
2024-04-23T05:52:19.647Z,197.29
2024-04-23T05:53:12.558Z,197.50
2024-04-23T05:54:11.534Z,198.74
2024-04-23T05:55:11.538Z,200.90
2024-04-23T05:56:11.630Z,206.25
2024-04-23T05:57:11.955Z,211.07
2024-04-23T05:58:11.535Z,198.74
2024-04-23T05:59:11.592Z,199.54
2024-04-23T06:00:11.536Z,197.20
2024-04-23T06:01:12.025Z,191.55
2024-04-23T06:02:11.549Z,193.71
2024-04-23T06:03:11.574Z,193.83
2024-04-23T06:04:11.656Z,191.11
2024-04-23T06:05:11.692Z,198.48
2024-04-23T06:06:11.963Z,199.44
2024-04-23T06:07:11.791Z,198.98
2024-04-23T06:08:11.930Z,198.70
2024-04-23T06:09:11.866Z,197.95
2024-04-23T06:10:11.932Z,201.27
2024-04-23T06:11:12.060Z,196.40
2024-04-23T06:12:11.998Z,196.69
2024-04-23T06:13:12.049Z,193.39
2024-04-23T06:14:12.127Z,193.64
2024-04-23T06:15:12.124Z,189.83
2024-04-23T06:16:12.164Z,189.96
2024-04-23T06:17:12.236Z,192.91
2024-04-23T06:18:12.301Z,191.70
2024-04-23T06:19:12.260Z,192.42
2024-04-23T06:20:12.329Z,187.02
2024-04-23T06:21:12.325Z,189.73
2024-04-23T06:22:12.827Z,190.41
2024-04-23T06:23:12.440Z,191.93
2024-04-23T06:24:12.452Z,189.19
2024-04-23T06:25:12.523Z,189.75
2024-04-23T06:26:12.577Z,192.79
2024-04-23T06:27:12.544Z,188.73
2024-04-23T06:28:12.608Z,190.52
2024-04-23T06:29:12.612Z,187.68
2024-04-23T06:30:12.668Z,192.77
2024-04-23T06:31:12.667Z,192.45
2024-04-23T06:32:12.766Z,190.30
2024-04-23T06:33:13.111Z,194.68
2024-04-23T06:34:12.812Z,196.92
2024-04-23T06:35:12.895Z,191.79
2024-04-23T06:36:12.963Z,195.58
2024-04-23T06:37:12.968Z,193.88
2024-04-23T06:38:13.051Z,190.34
2024-04-23T06:39:13.065Z,190.43
2024-04-23T06:40:13.126Z,186.96
2024-04-23T06:41:13.175Z,181.04
2024-04-23T06:42:13.227Z,179.79
2024-04-23T06:43:15.239Z,175.21
2024-04-23T06:44:13.368Z,172.58
2024-04-23T06:45:13.458Z,169.58
2024-04-23T06:46:13.515Z,167.00
2024-04-23T06:47:13.575Z,162.94
2024-04-23T06:48:13.669Z,161.05
2024-04-23T06:49:13.681Z,157.72
2024-04-23T06:50:13.769Z,155.21
2024-04-23T06:51:13.763Z,154.46
2024-04-23T06:52:13.815Z,151.73
2024-04-23T06:53:13.858Z,150.02
2024-04-23T06:54:13.857Z,146.23
2024-04-23T06:55:13.877Z,143.37
2024-04-23T06:56:13.981Z,143.13
2024-04-23T06:57:13.897Z,138.95
2024-04-23T06:58:13.917Z,137.56
2024-04-23T06:59:14.005Z,132.45
2024-04-23T07:00:13.923Z,130.30
2024-04-23T07:01:13.963Z,129.21
2024-04-23T07:02:14.122Z,126.53
2024-04-23T07:03:13.958Z,121.62
2024-04-23T07:04:13.960Z,120.99
2024-04-23T07:05:14.051Z,121.78
2024-04-23T07:06:14.018Z,119.36
2024-04-23T07:07:14.030Z,119.56
2024-04-23T07:08:14.098Z,117.99
2024-04-23T07:09:14.044Z,117.18
2024-04-23T07:10:14.066Z,115.50
2024-04-23T07:11:14.150Z,114.22
2024-04-23T07:12:14.092Z,111.66
2024-04-23T07:13:14.089Z,111.18
2024-04-23T07:14:14.111Z,110.09
2024-04-23T07:15:14.121Z,110.26
2024-04-23T07:16:14.130Z,110.22
2024-04-23T07:17:14.212Z,109.21
2024-04-23T07:18:14.196Z,110.34
2024-04-23T07:19:14.205Z,112.87
2024-04-23T07:20:14.377Z,114.80
2024-04-23T07:21:14.224Z,115.79
2024-04-23T07:22:14.239Z,117.02
2024-04-23T07:23:14.254Z,116.10
2024-04-23T07:24:14.274Z,115.16
2024-04-23T07:25:14.290Z,115.22
2024-04-23T07:26:14.488Z,117.34
2024-04-23T07:27:14.344Z,122.72
2024-04-23T07:28:14.378Z,130.88
2024-04-23T07:29:14.416Z,138.19
2024-04-23T07:30:14.421Z,144.77
2024-04-23T07:31:14.498Z,149.55
2024-04-23T07:32:14.928Z,156.22
2024-04-23T07:33:14.564Z,164.21
2024-04-23T07:34:14.987Z,169.83
2024-04-23T07:35:14.540Z,174.47
2024-04-23T07:36:14.537Z,177.92
2024-04-23T07:37:14.592Z,181.23
2024-04-23T07:38:14.644Z,183.73
2024-04-23T07:39:14.946Z,185.89
2024-04-23T07:40:14.789Z,189.16
2024-04-23T07:41:14.862Z,191.32
2024-04-23T07:42:14.916Z,194.82
2024-04-23T07:43:15.035Z,197.18
2024-04-23T07:44:15.101Z,200.00
2024-04-23T07:45:15.139Z,197.73
2024-04-23T07:46:15.149Z,198.69
2024-04-23T07:47:15.271Z,196.90
2024-04-23T07:48:15.357Z,199.02
2024-04-23T07:49:15.311Z,200.19
2024-04-23T07:50:15.343Z,200.21
2024-04-23T07:51:15.395Z,199.30
2024-04-23T07:52:15.433Z,200.36
2024-04-23T07:53:15.492Z,198.92
2024-04-23T07:54:15.517Z,196.12
2024-04-23T07:55:15.542Z,200.00
2024-04-23T07:56:15.646Z,195.49
2024-04-23T07:57:15.611Z,194.29
2024-04-23T07:58:15.644Z,196.68
2024-04-23T07:59:15.696Z,194.46
2024-04-23T08:00:15.711Z,192.74
2024-04-23T08:01:16.146Z,195.99
2024-04-23T08:02:15.818Z,196.89
2024-04-23T08:03:15.792Z,194.56
2024-04-23T08:04:15.808Z,200.38
2024-04-23T08:05:15.902Z,196.20
2024-04-23T08:06:15.842Z,195.62
2024-04-23T08:07:15.873Z,197.88
2024-04-23T08:08:15.895Z,195.20
2024-04-23T08:09:15.902Z,199.17
2024-04-23T08:10:15.908Z,195.27
2024-04-23T08:11:16.148Z,198.59
2024-04-23T08:12:15.922Z,193.99
2024-04-23T08:13:15.930Z,192.41
2024-04-23T08:14:15.980Z,192.05
2024-04-23T08:15:18.784Z,196.26
2024-04-23T08:16:15.988Z,199.13
2024-04-23T08:17:16.039Z,199.46
2024-04-23T08:18:16.032Z,199.17
2024-04-23T08:19:15.962Z,200.37
2024-04-23T08:20:15.970Z,199.40
2024-04-23T08:21:16.022Z,195.56
2024-04-23T08:22:15.971Z,191.70
2024-04-23T08:23:15.987Z,191.43
2024-04-23T08:24:15.964Z,188.84
2024-04-23T08:25:15.961Z,180.43
2024-04-23T08:26:16.250Z,180.50
2024-04-23T08:27:15.959Z,174.13
2024-04-23T08:28:15.984Z,168.34
2024-04-23T08:29:15.972Z,166.59
2024-04-23T08:30:15.963Z,160.47
2024-04-23T08:31:15.967Z,155.85
2024-04-23T08:32:15.966Z,148.40
2024-04-23T08:33:16.040Z,144.37
2024-04-23T08:34:15.992Z,141.33
2024-04-23T08:35:15.972Z,140.51
2024-04-23T08:36:16.014Z,136.86
2024-04-23T08:37:15.979Z,135.03
2024-04-23T08:38:15.978Z,131.82
2024-04-23T08:39:23.338Z,50.00
2024-04-23T08:40:23.185Z,50.00
2024-04-23T08:41:23.288Z,50.00
2024-04-23T08:42:23.194Z,50.00
2024-04-23T08:43:23.209Z,50.00
2024-04-23T08:44:23.217Z,50.00
2024-04-23T08:45:23.199Z,51.53
2024-04-23T08:46:23.201Z,50.50
2024-04-23T08:47:23.258Z,50.60
2024-04-23T08:48:23.234Z,52.38
2024-04-23T08:49:23.213Z,50.65
2024-04-23T08:50:23.379Z,51.74
2024-04-23T08:51:23.204Z,50.48
2024-04-23T08:52:23.228Z,50.00
2024-04-23T08:53:23.213Z,50.16
2024-04-23T08:54:23.202Z,50.00
2024-04-23T08:55:23.222Z,50.79
2024-04-23T08:56:23.211Z,50.49
2024-04-23T08:57:23.212Z,50.39
2024-04-23T08:58:23.220Z,50.00
2024-04-23T08:59:23.258Z,51.16
2024-04-23T09:00:23.240Z,51.84
2024-04-23T09:01:23.266Z,51.39
2024-04-23T09:02:23.277Z,52.45
2024-04-23T09:03:23.224Z,52.68
2024-04-23T09:04:23.371Z,50.57
2024-04-23T09:05:24.340Z,52.46
2024-04-23T09:06:23.249Z,51.57
2024-04-23T09:07:30.133Z,51.03
2024-04-23T09:08:24.263Z,51.16
2024-04-23T09:09:23.250Z,51.88
2024-04-23T09:10:23.249Z,52.86
2024-04-23T09:11:23.339Z,54.10
2024-04-23T09:12:23.239Z,53.12
2024-04-23T09:13:23.243Z,54.22
2024-04-23T09:14:23.240Z,54.96
2024-04-23T09:15:23.259Z,55.54
2024-04-23T09:16:23.258Z,54.16
2024-04-23T09:17:23.326Z,54.13
2024-04-23T09:18:23.298Z,52.10
2024-04-23T09:19:23.266Z,53.47
2024-04-23T09:20:23.260Z,52.18
2024-04-23T09:21:23.273Z,51.11
2024-04-23T09:22:23.253Z,50.84
2024-04-23T09:23:23.260Z,51.23
2024-04-23T09:24:23.283Z,54.93
2024-04-23T09:25:23.254Z,54.84
2024-04-23T09:26:23.308Z,56.70
2024-04-23T09:27:23.272Z,61.37
2024-04-23T09:28:24.125Z,60.89
2024-04-23T09:29:23.372Z,65.99
2024-04-23T09:30:23.272Z,129.66
2024-04-23T09:31:23.312Z,147.44
2024-04-23T09:32:23.345Z,159.01
2024-04-23T09:33:23.286Z,166.44
2024-04-23T09:34:23.650Z,179.37
2024-04-23T09:35:23.354Z,180.88
2024-04-23T09:36:23.839Z,168.98
2024-04-23T09:37:23.391Z,159.47
2024-04-23T09:38:23.425Z,149.72
2024-04-23T09:39:23.448Z,141.88
2024-04-23T09:40:23.428Z,135.28
2024-04-23T09:41:23.815Z,124.05
2024-04-23T09:42:23.467Z,112.62
2024-04-23T09:43:23.517Z,105.85
2024-04-23T09:44:23.573Z,97.54
2024-04-23T09:45:23.616Z,88.91
2024-04-23T09:46:23.815Z,82.93
2024-04-23T09:47:23.836Z,75.83
2024-04-23T09:48:23.908Z,70.60
2024-04-23T09:49:23.751Z,65.65
2024-04-23T09:50:23.774Z,58.67
2024-04-23T09:51:23.816Z,54.19
2024-04-23T09:52:25.627Z,50.00
2024-04-23T09:53:23.871Z,50.00
2024-04-23T09:54:23.887Z,51.02
2024-04-23T09:55:23.869Z,50.00
2024-04-23T09:56:23.871Z,50.00
2024-04-23T09:57:23.880Z,53.18
2024-04-23T09:58:25.880Z,51.02
2024-04-23T09:59:23.896Z,51.19
2024-04-23T10:00:23.893Z,51.31
2024-04-23T10:01:23.882Z,50.65
2024-04-23T10:02:24.016Z,50.82
2024-04-23T10:03:23.984Z,50.51
2024-04-23T10:04:25.623Z,52.04
2024-04-23T10:05:24.047Z,52.16
2024-04-23T10:06:23.891Z,50.04
2024-04-23T10:07:23.894Z,49.39
2024-04-23T10:08:23.900Z,48.17
2024-04-23T10:09:23.902Z,43.99
2024-04-23T10:10:24.237Z,50.00
2024-04-23T10:11:23.970Z,50.00
2024-04-23T10:12:23.901Z,51.63
2024-04-23T10:13:23.903Z,51.94
2024-04-23T10:14:23.912Z,52.10
2024-04-23T10:15:23.918Z,52.67
2024-04-23T10:16:23.904Z,51.90
2024-04-23T10:17:23.917Z,53.04
2024-04-23T10:18:24.040Z,52.46
2024-04-23T10:19:23.904Z,51.25
2024-04-23T10:20:23.941Z,51.92
2024-04-23T10:21:24.330Z,53.88
2024-04-23T10:22:23.924Z,52.31
2024-04-23T10:23:23.916Z,54.68
2024-04-23T10:24:23.922Z,56.51
2024-04-23T10:25:23.918Z,57.37
2024-04-23T10:26:23.976Z,61.48
2024-04-23T10:27:23.935Z,62.20
2024-04-23T10:28:23.955Z,62.77
2024-04-23T10:29:23.945Z,64.32
2024-04-23T10:30:23.945Z,63.75
2024-04-23T10:31:24.335Z,63.64
2024-04-23T10:32:24.016Z,61.13
2024-04-23T10:33:24.088Z,64.54
2024-04-23T10:34:23.942Z,61.73
2024-04-23T10:35:23.932Z,58.47
2024-04-23T10:36:23.940Z,61.49
2024-04-23T10:37:23.979Z,60.67
2024-04-23T10:38:24.007Z,57.64
2024-04-23T10:39:24.083Z,54.66
2024-04-23T10:40:24.009Z,51.86
2024-04-23T10:41:23.976Z,50.05
2024-04-23T10:42:23.944Z,50.53
2024-04-23T10:43:23.950Z,48.46
2024-04-23T10:44:23.981Z,50.00
2024-04-23T10:45:23.957Z,50.91
2024-04-23T10:46:23.953Z,52.07
2024-04-23T10:47:23.991Z,50.13
2024-04-23T10:48:23.992Z,50.01
2024-04-23T10:49:23.978Z,51.41
2024-04-23T10:50:23.975Z,51.82
2024-04-23T10:51:23.964Z,53.22
2024-04-23T10:52:23.997Z,56.05
2024-04-23T10:53:23.966Z,57.68
2024-04-23T10:54:23.997Z,63.47
2024-04-23T10:55:24.023Z,65.96
2024-04-23T10:56:24.345Z,72.54
2024-04-23T10:57:24.094Z,80.29
2024-04-23T10:58:24.110Z,89.17
2024-04-23T10:59:25.834Z,94.10
2024-04-23T11:00:24.138Z,94.36
2024-04-23T11:01:24.133Z,96.05
2024-04-23T11:02:24.162Z,100.54
2024-04-23T11:03:24.299Z,109.46
2024-04-23T11:04:24.172Z,125.97
2024-04-23T11:05:24.202Z,134.91
2024-04-23T11:06:24.165Z,139.30
2024-04-23T11:07:24.128Z,142.94
2024-04-23T11:08:24.152Z,141.98
2024-04-23T11:09:24.126Z,140.98
2024-04-23T11:10:24.130Z,143.43
2024-04-23T11:11:24.613Z,140.89
2024-04-23T11:12:24.147Z,139.11
2024-04-23T11:13:24.143Z,137.80
2024-04-23T11:14:24.151Z,139.82
2024-04-23T11:15:24.143Z,141.55
2024-04-23T11:16:24.361Z,141.35
2024-04-23T11:17:24.268Z,144.32
2024-04-23T11:18:24.267Z,145.64
2024-04-23T11:19:24.137Z,149.19
2024-04-23T11:20:24.168Z,151.75
2024-04-23T11:21:24.155Z,149.51
2024-04-23T11:22:24.150Z,149.45
2024-04-23T11:23:24.142Z,151.41
2024-04-23T11:24:24.161Z,147.50
2024-04-23T11:25:24.171Z,148.38
2024-04-23T11:26:24.151Z,149.88
2024-04-23T11:27:24.166Z,148.96
2024-04-23T11:28:24.167Z,149.72
2024-04-23T11:29:24.161Z,149.62
2024-04-23T11:30:24.177Z,150.46
2024-04-23T11:31:24.168Z,151.68
2024-04-23T11:32:24.256Z,155.25
2024-04-23T11:33:24.282Z,158.01
2024-04-23T11:34:24.173Z,158.88
2024-04-23T11:35:24.208Z,155.05
2024-04-23T11:36:24.197Z,154.72
2024-04-23T11:37:24.199Z,155.08
2024-04-23T11:38:24.176Z,154.41
2024-04-23T11:39:24.170Z,153.91
2024-04-23T11:40:24.187Z,153.53
2024-04-23T11:41:24.229Z,154.12
2024-04-23T11:42:24.182Z,153.84
2024-04-23T11:43:24.212Z,155.46
2024-04-23T11:44:24.203Z,154.34
2024-04-23T11:45:24.274Z,154.52
2024-04-23T11:46:24.208Z,152.47
2024-04-23T11:47:28.099Z,152.23
2024-04-23T11:48:24.275Z,152.26
2024-04-23T11:49:24.196Z,151.74
2024-04-23T11:50:24.198Z,151.89
2024-04-23T11:51:24.365Z,151.34
2024-04-23T11:52:24.194Z,152.83
2024-04-23T11:53:24.210Z,151.36
2024-04-23T11:54:24.191Z,150.76
2024-04-23T11:55:24.194Z,150.04
2024-04-23T11:56:24.197Z,151.67
2024-04-23T11:57:24.207Z,153.05
2024-04-23T11:58:24.208Z,152.75
2024-04-23T11:59:24.194Z,153.77
2024-04-23T12:00:24.201Z,156.65
2024-04-23T12:01:24.204Z,154.15
2024-04-23T12:02:24.206Z,156.27
2024-04-23T12:03:24.219Z,156.27
2024-04-23T12:04:24.344Z,154.65
2024-04-23T12:05:24.405Z,153.75
2024-04-23T12:06:24.430Z,151.92
2024-04-23T12:07:24.480Z,149.30
2024-04-23T12:08:24.544Z,147.42
2024-04-23T12:09:24.609Z,147.39
2024-04-23T12:10:24.680Z,143.08
2024-04-23T12:11:24.827Z,143.11
2024-04-23T12:12:24.812Z,143.62
2024-04-23T12:13:24.919Z,142.97
2024-04-23T12:14:24.947Z,144.38
2024-04-23T12:15:25.021Z,141.41
2024-04-23T12:16:25.094Z,141.61
2024-04-23T12:17:25.176Z,140.73
2024-04-23T12:18:25.294Z,140.72
2024-04-23T12:19:25.290Z,139.26
2024-04-23T12:20:25.358Z,139.41
2024-04-23T12:21:25.413Z,141.83
2024-04-23T12:22:25.482Z,138.56
2024-04-23T12:23:25.542Z,136.78
2024-04-23T12:24:27.606Z,135.09
2024-04-23T12:25:25.613Z,133.02
2024-04-23T12:26:25.634Z,129.71
2024-04-23T12:27:25.607Z,121.91
2024-04-23T12:28:25.624Z,120.31
2024-04-23T12:29:25.628Z,117.21
2024-04-23T12:30:27.080Z,115.18
2024-04-23T12:31:25.901Z,115.27
2024-04-23T12:32:25.746Z,115.29
2024-04-23T12:33:25.706Z,114.32
2024-04-23T12:34:25.620Z,113.14
2024-04-23T12:35:25.625Z,112.32
2024-04-23T12:36:25.630Z,107.48
2024-04-23T12:37:25.651Z,103.69
2024-04-23T12:38:25.623Z,101.24
2024-04-23T12:39:25.667Z,99.02
2024-04-23T12:40:25.637Z,93.29
2024-04-23T12:41:25.635Z,92.91
2024-04-23T12:42:25.642Z,90.97
2024-04-23T12:43:25.636Z,90.89